Baton, North Carolina
Current Conditions -  °F | °C
As of 8:53 PM on Saturday 22 Nov 2014 (Local Time) from KHKY Reporting Station
Broken Clouds Broken Clouds  
Wind Chill: 40°   Ceiling: 4000
Heat Index: 43°   Visibility: 10mi
Dew Point: 21°   Wind: 5mph
Humidity: 42%   Direction: 240°WSW
Pressure: 30.33"   Gusts: NA
Location:  35.83°N, 81.4147°W
Report Text: KHKY 230153Z AUTO 24004KT 10SM BKN040 06/M06 A3033 RMK AO2 SLP268 T00611061
Loading
Personal Weather Stations






























Interactive Weather Map New forecast layout! Learn more

10-Day Weather Forecast

Advertisements
Track Severe Weather on mobile